createdAt,value
2018-05-04T00:02:00.584Z,98796.84
2018-05-04T00:04:29.236Z,98775.00
2018-05-04T00:06:57.625Z,98813.83
2018-05-04T00:09:26.059Z,98810.49
2018-05-04T00:11:54.449Z,98816.67
2018-05-04T00:14:22.844Z,98806.47
2018-05-04T00:16:51.235Z,98810.55
2018-05-04T00:19:19.662Z,98794.42
2018-05-04T00:21:48.066Z,98809.47
2018-05-04T00:24:16.635Z,98808.38
2018-05-04T00:26:45.021Z,98814.08
2018-05-04T00:29:13.447Z,98811.59
2018-05-04T00:31:41.862Z,98812.45
2018-05-04T00:34:10.237Z,98809.59
2018-05-04T00:36:38.638Z,98819.69
2018-05-04T00:39:07.034Z,98825.55
2018-05-04T00:41:35.430Z,98834.70
2018-05-04T00:44:04.060Z,98828.94
2018-05-04T00:46:32.446Z,98832.17
2018-05-04T00:49:00.849Z,98842.31
2018-05-04T00:51:29.236Z,98845.72
2018-05-04T00:54:08.606Z,98849.47
2018-05-04T00:56:36.977Z,98853.03
2018-05-04T00:59:05.366Z,98863.97
2018-05-04T01:01:33.848Z,98872.77
2018-05-04T01:04:02.234Z,98862.09
2018-05-04T01:06:30.648Z,98876.21
2018-05-04T01:08:59.049Z,98880.60
2018-05-04T01:11:27.450Z,98879.71
2018-05-04T01:13:55.831Z,98880.25
2018-05-04T01:16:24.228Z,98885.73
2018-05-04T01:18:52.678Z,98875.97
2018-05-04T01:21:21.067Z,98884.22
2018-05-04T01:23:49.465Z,98886.02
2018-05-04T01:26:17.861Z,98892.34
2018-05-04T01:28:46.134Z,98892.48
2018-05-04T01:31:14.506Z,98900.44
2018-05-04T01:33:42.918Z,98901.55
2018-05-04T01:36:11.325Z,98871.27
2018-05-04T01:38:39.734Z,98898.48
2018-05-04T01:41:08.128Z,98896.41
2018-05-04T01:43:36.501Z,98897.89
2018-05-04T01:46:04.547Z,98904.72
2018-05-04T01:48:32.929Z,98909.82
2018-05-04T01:51:01.313Z,98911.59
2018-05-04T01:53:29.839Z,98904.94
2018-05-04T01:55:58.273Z,98908.86
2018-05-04T01:58:26.711Z,98909.47
2018-05-04T02:00:55.113Z,98911.38
2018-05-04T02:03:23.491Z,98903.55
2018-05-04T02:05:51.893Z,98908.00
2018-05-04T02:08:20.339Z,98915.38
2018-05-04T02:10:48.736Z,98919.01
2018-05-04T02:13:17.130Z,98915.20
2018-05-04T02:15:45.509Z,98914.95
2018-05-04T02:18:13.891Z,98930.37
2018-05-04T02:20:42.261Z,98931.12
2018-05-04T02:23:10.643Z,98932.52
2018-05-04T02:25:39.096Z,98931.77
2018-05-04T02:28:07.487Z,98938.78
2018-05-04T02:30:35.671Z,98934.17
2018-05-04T02:33:04.078Z,98901.57
2018-05-04T02:35:32.504Z,98932.80
2018-05-04T02:38:00.880Z,98929.75
2018-05-04T02:40:29.267Z,98930.10
2018-05-04T02:42:57.631Z,98933.66
2018-05-04T02:45:26.005Z,98935.03
2018-05-04T02:47:54.398Z,98934.48
2018-05-04T02:50:22.776Z,98941.38
2018-05-04T02:52:51.165Z,98936.99
2018-05-04T02:55:19.971Z,98941.16
2018-05-04T02:57:48.536Z,98942.05
2018-05-04T03:00:16.910Z,98937.12
2018-05-04T03:02:45.293Z,98950.05
2018-05-04T03:05:13.731Z,98948.72
2018-05-04T03:07:42.131Z,98944.61
2018-05-04T03:10:10.537Z,98944.47
2018-05-04T03:12:38.930Z,98938.72
2018-05-04T03:15:09.076Z,98954.23
2018-05-04T03:17:37.474Z,98958.22
2018-05-04T03:20:05.309Z,98957.96
2018-05-04T03:22:33.685Z,98958.58
2018-05-04T03:25:02.065Z,98961.97
2018-05-04T03:27:30.441Z,98965.08
2018-05-04T03:29:58.843Z,98970.11
2018-05-04T03:32:27.232Z,98972.78
2018-05-04T03:34:56.213Z,98979.74
2018-05-04T03:37:24.632Z,98977.03
2018-05-04T03:39:54.665Z,98973.86
2018-05-04T03:42:23.052Z,98976.75
2018-05-04T03:44:51.427Z,98978.77
2018-05-04T03:47:19.600Z,98979.14
2018-05-04T03:49:48.014Z,98972.39
2018-05-04T03:52:16.580Z,98973.59
2018-05-04T03:54:44.692Z,98982.86
2018-05-04T03:57:24.111Z,99000.56
2018-05-04T04:00:03.657Z,98996.94
2018-05-04T04:02:43.343Z,99002.83
2018-05-04T04:05:11.727Z,99003.08
2018-05-04T04:07:40.304Z,99008.97
2018-05-04T04:10:10.321Z,99012.22
2018-05-04T04:12:38.722Z,99024.44
2018-05-04T04:15:10.100Z,99030.28
2018-05-04T04:17:38.495Z,99033.31
2018-05-04T04:20:09.304Z,99037.92
2018-05-04T04:22:37.692Z,99042.07
2018-05-04T04:25:06.184Z,99031.81
2018-05-04T04:27:34.572Z,99021.51
2018-05-04T04:30:02.980Z,99021.08
2018-05-04T04:32:31.359Z,99026.47
2018-05-04T04:34:59.938Z,99033.10
2018-05-04T04:37:28.345Z,98951.28
2018-05-04T04:39:56.752Z,99038.95
2018-05-04T04:42:25.190Z,99041.91
2018-05-04T04:44:53.579Z,99041.98
2018-05-04T04:47:21.989Z,99043.64
2018-05-04T04:49:50.382Z,99042.14
2018-05-04T04:52:18.793Z,99050.05
2018-05-04T04:54:47.184Z,99040.55
2018-05-04T04:57:15.599Z,99055.95
2018-05-04T04:59:44.015Z,99059.87
2018-05-04T05:02:12.428Z,99061.00
2018-05-04T05:04:40.812Z,99059.34
2018-05-04T05:07:09.174Z,99061.97
2018-05-04T05:09:37.317Z,99060.77
2018-05-04T05:12:05.707Z,99009.98
2018-05-04T05:14:34.092Z,99061.80
2018-05-04T05:17:02.467Z,99066.68
2018-05-04T05:19:30.849Z,99061.30
2018-05-04T05:21:59.300Z,99059.84
2018-05-04T05:24:27.686Z,99059.14
2018-05-04T05:26:56.116Z,99058.24
2018-05-04T05:29:24.496Z,99063.06
2018-05-04T05:31:52.900Z,99063.33
2018-05-04T05:34:21.302Z,99057.47
2018-05-04T05:36:49.683Z,99063.32
2018-05-04T05:39:18.108Z,99071.45
2018-05-04T05:41:46.482Z,99056.15
2018-05-04T05:44:14.851Z,99064.48
2018-05-04T05:46:43.253Z,99073.69
2018-05-04T05:49:11.656Z,99086.41
2018-05-04T05:51:39.808Z,99083.05
2018-05-04T05:54:08.188Z,99092.17
2018-05-04T05:56:36.808Z,99092.44
2018-05-04T05:59:05.274Z,99086.00
2018-05-04T06:01:33.677Z,99090.91
2018-05-04T06:04:02.093Z,99097.83
2018-05-04T06:06:30.654Z,99090.84
2018-05-04T06:08:59.043Z,99091.03
2018-05-04T06:11:27.433Z,99092.73
2018-05-04T06:13:56.574Z,99090.48
2018-05-04T06:16:24.736Z,99091.38
2018-05-04T06:18:53.114Z,99103.09
2018-05-04T06:21:21.483Z,99099.64
2018-05-04T06:23:49.870Z,99107.41
2018-05-04T06:26:18.266Z,99114.95
2018-05-04T06:28:46.640Z,99111.38
2018-05-04T06:31:15.014Z,99116.00
2018-05-04T06:33:43.440Z,99110.06
2018-05-04T06:36:11.566Z,99088.98
2018-05-04T06:38:39.737Z,99114.11
2018-05-04T06:41:08.132Z,99111.32
2018-05-04T06:43:36.509Z,99114.83
2018-05-04T06:46:04.889Z,99104.63
2018-05-04T06:48:33.273Z,99107.92
2018-05-04T06:51:01.680Z,99108.91
2018-05-04T06:53:30.120Z,99107.26
2018-05-04T06:55:58.539Z,99054.88
2018-05-04T06:58:26.963Z,99100.64
2018-05-04T07:00:55.354Z,99099.88
2018-05-04T07:03:23.757Z,99096.86
2018-05-04T07:05:52.146Z,99092.75
2018-05-04T07:08:20.522Z,99098.59
2018-05-04T07:10:48.909Z,99098.59
2018-05-04T07:13:17.309Z,99102.22
2018-05-04T07:15:45.729Z,99096.15
2018-05-04T07:18:14.125Z,99084.50
2018-05-04T07:20:42.501Z,99091.84
2018-05-04T07:23:10.882Z,99092.64
2018-05-04T07:25:39.034Z,99093.07
2018-05-04T07:28:07.431Z,99089.50
2018-05-04T07:30:35.822Z,99089.95
2018-05-04T07:33:04.249Z,99085.03
2018-05-04T07:35:32.709Z,99091.57
2018-05-04T07:38:00.865Z,99097.31
2018-05-04T07:40:29.273Z,99094.50
2018-05-04T07:42:57.458Z,99091.72
2018-05-04T07:45:26.017Z,99091.48
2018-05-04T07:47:54.410Z,99091.59
2018-05-04T07:50:22.805Z,99080.72
2018-05-04T07:52:51.228Z,99097.53
2018-05-04T07:55:19.693Z,99094.36
2018-05-04T07:57:48.195Z,99089.00
2018-05-04T08:00:16.584Z,99097.20
2018-05-04T08:02:45.103Z,99088.67
2018-05-04T08:05:13.764Z,99082.73
2018-05-04T08:07:42.247Z,99076.95
2018-05-04T08:10:10.645Z,99085.15
2018-05-04T08:12:39.025Z,99080.41
2018-05-04T08:15:10.494Z,99093.42
2018-05-04T08:17:38.906Z,99093.13
2018-05-04T08:20:09.308Z,99091.23
2018-05-04T08:22:37.805Z,99094.83
2018-05-04T08:25:09.437Z,99098.46
2018-05-04T08:27:37.847Z,99102.66
2018-05-04T08:30:08.635Z,99100.88
2018-05-04T08:32:37.029Z,99108.48
2018-05-04T08:35:08.580Z,99105.77
2018-05-04T08:37:36.731Z,99105.60
2018-05-04T08:40:05.080Z,99109.03
2018-05-04T08:42:35.577Z,99114.26
2018-05-04T08:45:05.165Z,99117.90
2018-05-04T08:47:34.484Z,99117.03
2018-05-04T08:50:02.888Z,99122.20
2018-05-04T08:52:31.268Z,99120.20
2018-05-04T08:54:59.662Z,99124.36
2018-05-04T08:57:28.128Z,99125.45
2018-05-04T08:59:56.646Z,99128.37
2018-05-04T09:02:24.810Z,99111.94
2018-05-04T09:04:53.178Z,99123.11
2018-05-04T09:07:21.657Z,99120.92
2018-05-04T09:09:50.054Z,99126.30
2018-05-04T09:12:18.480Z,99121.55
2018-05-04T09:14:50.217Z,99118.45
2018-05-04T09:17:18.609Z,99109.77
2018-05-04T09:19:47.047Z,99114.63
2018-05-04T09:22:15.604Z,99105.60
2018-05-04T09:24:43.989Z,99100.93
2018-05-04T09:27:12.362Z,99110.42
2018-05-04T09:29:40.750Z,99115.51
2018-05-04T09:32:09.149Z,99128.28
2018-05-04T09:34:37.578Z,99130.70
2018-05-04T09:37:05.977Z,99125.55
2018-05-04T09:39:34.389Z,99126.03
2018-05-04T09:42:02.774Z,99119.64
2018-05-04T09:44:31.160Z,99129.66
2018-05-04T09:46:59.534Z,99132.83
2018-05-04T09:49:27.932Z,99139.55
2018-05-04T09:51:56.325Z,99081.66
2018-05-04T09:54:24.708Z,99127.05
2018-05-04T09:56:53.093Z,99141.63
2018-05-04T09:59:21.473Z,99147.64
2018-05-04T10:01:49.865Z,99135.92
2018-05-04T10:04:18.260Z,99139.85
2018-05-04T10:06:46.637Z,99106.72
2018-05-04T10:09:15.050Z,99138.66
2018-05-04T10:11:43.593Z,99136.70
2018-05-04T10:14:11.972Z,99128.06
2018-05-04T10:16:40.363Z,99136.67
2018-05-04T10:19:08.744Z,99128.24
2018-05-04T10:21:37.117Z,99136.48
2018-05-04T10:24:05.502Z,99140.74
2018-05-04T10:26:33.895Z,99136.30
2018-05-04T10:29:02.326Z,99134.55
2018-05-04T10:31:30.794Z,99121.27
2018-05-04T10:33:59.311Z,99124.71
2018-05-04T10:36:27.696Z,99128.36
2018-05-04T10:38:57.109Z,99131.61
2018-05-04T10:41:25.565Z,99131.87
2018-05-04T10:43:53.954Z,99138.73
2018-05-04T10:46:22.392Z,99145.23
2018-05-04T10:48:50.769Z,99134.92
2018-05-04T10:51:19.167Z,99136.48
2018-05-04T10:53:47.649Z,99134.34
2018-05-04T10:56:15.818Z,99139.22
2018-05-04T10:58:44.199Z,99129.42
2018-05-04T11:01:12.590Z,99127.72
2018-05-04T11:03:40.960Z,99131.05
2018-05-04T11:06:09.336Z,99138.63
2018-05-04T11:08:37.770Z,99145.78
2018-05-04T11:11:05.925Z,99141.59
2018-05-04T11:13:34.313Z,99145.83
2018-05-04T11:16:02.698Z,99150.66
2018-05-04T11:18:31.273Z,99160.03
2018-05-04T11:20:59.643Z,99152.84
2018-05-04T11:23:28.040Z,99160.41
2018-05-04T11:25:56.426Z,99146.23
2018-05-04T11:28:24.830Z,99158.73
2018-05-04T11:30:53.221Z,99151.81
2018-05-04T11:33:21.792Z,99154.19
2018-05-04T11:35:50.167Z,99147.20
2018-05-04T11:38:18.564Z,99146.38
2018-05-04T11:40:46.952Z,99144.29
2018-05-04T11:43:15.348Z,99133.97
2018-05-04T11:45:43.726Z,99142.41
2018-05-04T11:48:12.123Z,99148.45
2018-05-04T11:50:40.504Z,99089.23
2018-05-04T11:53:08.886Z,99141.53
2018-05-04T11:55:37.265Z,99142.45
2018-05-04T11:58:05.653Z,99146.77
2018-05-04T12:00:34.039Z,99146.77
2018-05-04T12:03:02.455Z,99146.21
2018-05-04T12:05:30.855Z,99142.08
2018-05-04T12:07:59.257Z,99138.21
2018-05-04T12:10:27.661Z,99141.20
2018-05-04T12:12:56.003Z,99133.55
2018-05-04T12:15:24.396Z,99131.31
2018-05-04T12:17:52.790Z,99131.94
2018-05-04T12:20:21.149Z,99125.62
2018-05-04T12:22:49.553Z,99111.43
2018-05-04T12:25:18.176Z,99122.48
2018-05-04T12:27:46.805Z,99127.45
2018-05-04T12:30:15.389Z,99133.54
2018-05-04T12:32:43.772Z,99123.69
2018-05-04T12:35:12.148Z,99107.51
2018-05-04T12:37:40.547Z,99124.09
2018-05-04T12:40:09.445Z,99110.94
2018-05-04T12:42:37.842Z,99107.19
2018-05-04T12:45:08.863Z,99106.50
2018-05-04T12:47:37.272Z,99110.44
2018-05-04T12:50:07.815Z,99108.31
2018-05-04T12:52:36.207Z,99108.58
2018-05-04T12:55:07.188Z,99109.79
2018-05-04T12:57:36.929Z,99108.87
2018-05-04T13:00:07.553Z,99112.83
2018-05-04T13:02:36.403Z,99121.68
2018-05-04T13:05:06.496Z,99088.16
2018-05-04T13:07:34.886Z,99114.07
2018-05-04T13:10:03.278Z,99105.77
2018-05-04T13:12:31.672Z,99096.76
2018-05-04T13:15:00.139Z,99093.94
2018-05-04T13:17:28.727Z,99096.89
2018-05-04T13:19:57.007Z,99094.14
2018-05-04T13:22:25.419Z,99089.61
2018-05-04T13:24:53.822Z,99094.63
2018-05-04T13:27:22.210Z,99085.31
2018-05-04T13:29:50.630Z,99097.72
2018-05-04T13:32:19.013Z,99080.73
2018-05-04T13:34:47.389Z,99065.65
2018-05-04T13:37:15.808Z,99087.06
2018-05-04T13:39:44.228Z,99082.13
2018-05-04T13:42:12.711Z,99078.11
2018-05-04T13:44:41.357Z,99072.87
2018-05-04T13:47:09.914Z,99084.61
2018-05-04T13:49:38.307Z,99075.55
2018-05-04T13:52:06.691Z,99078.26
2018-05-04T13:54:35.094Z,99075.98
2018-05-04T13:57:03.505Z,99070.91
2018-05-04T13:59:31.889Z,99061.76
2018-05-04T14:02:00.045Z,99059.38
2018-05-04T14:04:28.686Z,99049.00
2018-05-04T14:06:56.861Z,99045.04
2018-05-04T14:09:26.384Z,99044.45
2018-05-04T14:11:54.813Z,99040.20
2018-05-04T14:14:22.961Z,99047.67
2018-05-04T14:16:51.339Z,99054.88
2018-05-04T14:19:19.734Z,99047.62
2018-05-04T14:21:48.157Z,99049.66
2018-05-04T14:24:16.742Z,99052.47
2018-05-04T14:26:45.187Z,99053.23
2018-05-04T14:29:13.601Z,99057.03
2018-05-04T14:31:41.986Z,99060.45
2018-05-04T14:34:10.381Z,99055.01
2018-05-04T14:36:38.840Z,99055.21
2018-05-04T14:39:07.230Z,99064.72
2018-05-04T14:41:35.617Z,99061.61
2018-05-04T14:44:04.015Z,99069.22
2018-05-04T14:46:32.413Z,99069.42
2018-05-04T14:49:00.855Z,99070.77
2018-05-04T14:51:29.253Z,99064.04
2018-05-04T14:53:57.962Z,99060.69
2018-05-04T14:56:26.181Z,99064.19
2018-05-04T14:58:54.590Z,99068.84
2018-05-04T15:01:22.996Z,99074.92
2018-05-04T15:03:51.437Z,99083.06
2018-05-04T15:06:19.829Z,99078.80
2018-05-04T15:08:48.238Z,99074.19
2018-05-04T15:11:16.640Z,99070.95
2018-05-04T15:13:45.060Z,99070.78
2018-05-04T15:16:13.525Z,99071.72
2018-05-04T15:18:41.932Z,99068.23
2018-05-04T15:21:10.335Z,99067.53
2018-05-04T15:23:38.951Z,99069.89
2018-05-04T15:26:08.296Z,99064.33
2018-05-04T15:28:36.472Z,99057.27
2018-05-04T15:31:04.562Z,99053.84
2018-05-04T15:33:32.987Z,99055.75
2018-05-04T15:36:01.367Z,99022.09
2018-05-04T15:38:29.849Z,99057.02
2018-05-04T15:40:58.231Z,99052.25
2018-05-04T15:43:26.310Z,99048.91
2018-05-04T15:45:54.705Z,99041.19
2018-05-04T15:48:28.539Z,99050.28
2018-05-04T15:51:02.371Z,99056.22
2018-05-04T15:53:30.779Z,99053.53
2018-05-04T15:55:59.170Z,99050.95
2018-05-04T15:58:27.575Z,99054.84
2018-05-04T16:00:55.965Z,99053.22
2018-05-04T16:03:24.420Z,99055.33
2018-05-04T16:05:52.833Z,99055.84
2018-05-04T16:08:21.211Z,99053.23
2018-05-04T16:10:49.632Z,99049.81
2018-05-04T16:13:18.030Z,99048.64
2018-05-04T16:15:46.417Z,99041.94
2018-05-04T16:18:14.824Z,98985.14
2018-05-04T16:20:43.226Z,99047.59
2018-05-04T16:23:11.634Z,99050.28
2018-05-04T16:25:40.050Z,99049.76
2018-05-04T16:28:09.246Z,99052.76
2018-05-04T16:30:37.649Z,99054.96
2018-05-04T16:33:05.806Z,99060.81
2018-05-04T16:35:34.221Z,99068.02
2018-05-04T16:38:02.605Z,99067.73
2018-05-04T16:40:30.983Z,99077.87
2018-05-04T16:42:59.357Z,99064.47
2018-05-04T16:45:27.754Z,99067.64
2018-05-04T16:48:01.542Z,99073.16
2018-05-04T16:50:29.968Z,99086.35
2018-05-04T16:52:58.505Z,99079.81
2018-05-04T16:55:26.672Z,99050.50
2018-05-04T16:57:54.836Z,99083.71
2018-05-04T17:00:23.042Z,99082.31
2018-05-04T17:02:51.415Z,99091.20
2018-05-04T17:05:19.839Z,99086.93
2018-05-04T17:07:48.006Z,99107.99
2018-05-04T17:10:16.996Z,99097.95
2018-05-04T17:12:45.235Z,99105.09
2018-05-04T17:15:13.411Z,99105.56
2018-05-04T17:17:41.554Z,99109.39
2018-05-04T17:20:09.796Z,99110.31
2018-05-04T17:22:38.044Z,99116.03
2018-05-04T17:25:06.542Z,99057.95
2018-05-04T17:27:34.970Z,99119.38
2018-05-04T17:30:04.121Z,99108.41
2018-05-04T17:32:33.702Z,99123.64
2018-05-04T17:35:02.119Z,99112.98
2018-05-04T17:37:30.548Z,99111.64
2018-05-04T17:39:59.725Z,99120.59
2018-05-04T17:42:28.136Z,99126.13
2018-05-04T17:44:56.535Z,99130.41
2018-05-04T17:47:24.966Z,99128.07
2018-05-04T17:49:53.386Z,99129.80
2018-05-04T17:52:21.787Z,99115.77
2018-05-04T17:54:50.244Z,99136.84
2018-05-04T17:57:18.653Z,99135.41
2018-05-04T17:59:47.701Z,99138.20
2018-05-04T18:02:16.161Z,99141.35
2018-05-04T18:04:44.533Z,99158.34
2018-05-04T18:07:12.915Z,99159.36
2018-05-04T18:09:41.706Z,99163.39
2018-05-04T18:12:10.104Z,99161.26
2018-05-04T18:14:42.865Z,99166.59
2018-05-04T18:17:11.718Z,99114.83
2018-05-04T18:19:40.151Z,99168.70
2018-05-04T18:22:08.533Z,99176.19
2018-05-04T18:24:36.916Z,99180.58
2018-05-04T18:27:05.317Z,99185.83
2018-05-04T18:29:34.558Z,99195.97
2018-05-04T18:32:02.951Z,99196.93
2018-05-04T18:34:31.381Z,99204.95
2018-05-04T18:37:00.537Z,99209.84
2018-05-04T18:39:28.983Z,99215.05
2018-05-04T18:41:57.372Z,99224.70
2018-05-04T18:44:25.767Z,99224.82
2018-05-04T18:46:54.212Z,99231.52
2018-05-04T18:49:22.615Z,99228.22
2018-05-04T18:51:51.027Z,99236.08
2018-05-04T18:54:19.625Z,99239.55
2018-05-04T18:56:48.031Z,99232.70
2018-05-04T18:59:16.449Z,99233.25
2018-05-04T19:01:44.951Z,99236.67
2018-05-04T19:04:13.399Z,99239.85
2018-05-04T19:06:41.787Z,99241.66
2018-05-04T19:09:10.188Z,99244.41
2018-05-04T19:11:38.588Z,99245.55
2018-05-04T19:14:06.979Z,99250.41
2018-05-04T19:16:35.383Z,99261.37
2018-05-04T19:19:03.805Z,99266.34
2018-05-04T19:21:32.246Z,99264.41
2018-05-04T19:24:00.651Z,99265.86
2018-05-04T19:26:29.082Z,99260.28
2018-05-04T19:28:57.390Z,99260.16
2018-05-04T19:31:25.821Z,99275.27
2018-05-04T19:33:54.957Z,99282.22
2018-05-04T19:36:23.352Z,99277.13
2018-05-04T19:38:51.756Z,99278.41
2018-05-04T19:41:20.373Z,99271.86
2018-05-04T19:43:49.892Z,99276.52
2018-05-04T19:46:18.300Z,99280.20
2018-05-04T19:48:46.852Z,99280.02
2018-05-04T19:51:15.390Z,99278.16
2018-05-04T19:53:44.719Z,99276.33
2018-05-04T19:56:13.111Z,99278.36
2018-05-04T19:58:41.529Z,99274.55
2018-05-04T20:01:10.137Z,99279.13
2018-05-04T20:03:40.243Z,99280.83
2018-05-04T20:06:09.867Z,99275.82
2018-05-04T20:08:39.476Z,99286.16
2018-05-04T20:11:07.857Z,99280.47
2018-05-04T20:13:36.258Z,99279.61
2018-05-04T20:16:04.633Z,99289.88
2018-05-04T20:18:33.104Z,99283.14
2018-05-04T20:21:02.433Z,99291.56
2018-05-04T20:23:30.824Z,99289.98
2018-05-04T20:25:59.213Z,99298.59
2018-05-04T20:28:30.894Z,99297.08
2018-05-04T20:30:59.315Z,99304.44
2018-05-04T20:33:27.766Z,99314.09
2018-05-04T20:35:56.350Z,99314.27
2018-05-04T20:38:24.854Z,99317.44
2018-05-04T20:40:53.048Z,99312.11
2018-05-04T20:43:21.499Z,99312.94
2018-05-04T20:45:49.883Z,99309.51
2018-05-04T20:48:18.295Z,99316.59
2018-05-04T20:50:47.859Z,99320.45
2018-05-04T20:53:16.922Z,99324.00
2018-05-04T20:55:45.335Z,99320.05
2018-05-04T20:58:13.756Z,99329.08
2018-05-04T21:00:42.171Z,99320.17
2018-05-04T21:03:13.071Z,99324.57
2018-05-04T21:05:41.955Z,99311.47
2018-05-04T21:08:10.099Z,99340.72
2018-05-04T21:10:38.529Z,99341.57
2018-05-04T21:13:06.930Z,99345.20
2018-05-04T21:15:35.753Z,99329.87
2018-05-04T21:18:04.141Z,99339.98
2018-05-04T21:20:32.524Z,99333.53
2018-05-04T21:23:00.957Z,99341.84
2018-05-04T21:25:30.042Z,99346.52
2018-05-04T21:27:59.337Z,99345.33
2018-05-04T21:30:28.787Z,99350.52
2018-05-04T21:32:59.002Z,99354.66
2018-05-04T21:35:29.906Z,99355.02
2018-05-04T21:37:58.420Z,99352.00
2018-05-04T21:40:26.874Z,99352.29
2018-05-04T21:42:55.083Z,99362.65
2018-05-04T21:45:23.477Z,99354.86
2018-05-04T21:47:52.202Z,99362.30
2018-05-04T21:50:20.646Z,99359.05
2018-05-04T21:52:49.069Z,99367.67
2018-05-04T21:55:17.223Z,99366.34
2018-05-04T21:57:45.686Z,99364.01
2018-05-04T22:00:14.163Z,99361.72
2018-05-04T22:02:42.744Z,99353.97
2018-05-04T22:05:11.144Z,99349.01
2018-05-04T22:07:39.554Z,99345.48
2018-05-04T22:10:10.082Z,99346.67
2018-05-04T22:12:38.548Z,99361.88
2018-05-04T22:15:07.401Z,99364.10
2018-05-04T22:17:35.712Z,99368.95
2018-05-04T22:20:04.235Z,99376.41
2018-05-04T22:22:32.661Z,99374.88
2018-05-04T22:25:01.065Z,99388.27
2018-05-04T22:27:29.493Z,99387.74
2018-05-04T22:29:57.899Z,99370.03
2018-05-04T22:32:26.676Z,99382.47
2018-05-04T22:34:55.051Z,99378.93
2018-05-04T22:37:23.488Z,99382.81
2018-05-04T22:39:51.882Z,99383.84
2018-05-04T22:42:20.287Z,99392.59
2018-05-04T22:44:48.670Z,99392.61
2018-05-04T22:47:17.678Z,99394.05
2018-05-04T22:49:46.901Z,99324.33
2018-05-04T22:52:15.454Z,99380.67
2018-05-04T22:54:43.877Z,99385.89
2018-05-04T22:57:12.258Z,99390.94
2018-05-04T22:59:40.478Z,99386.52
2018-05-04T23:02:08.914Z,99384.02
2018-05-04T23:04:37.777Z,99372.91
2018-05-04T23:07:06.010Z,99375.66
2018-05-04T23:09:35.064Z,99378.90
2018-05-04T23:12:03.469Z,99376.24
2018-05-04T23:14:31.865Z,99373.75
2018-05-04T23:17:00.243Z,99375.45
2018-05-04T23:19:28.645Z,99373.25
2018-05-04T23:21:57.329Z,99385.27
2018-05-04T23:24:26.091Z,99385.98
2018-05-04T23:26:54.476Z,99390.61
2018-05-04T23:29:22.892Z,99388.33
2018-05-04T23:31:51.272Z,99381.41
2018-05-04T23:34:19.657Z,99387.02
2018-05-04T23:36:48.053Z,99378.69
2018-05-04T23:39:16.500Z,99372.16
2018-05-04T23:41:44.887Z,99382.39
2018-05-04T23:44:13.361Z,99370.47
2018-05-04T23:46:41.779Z,99368.06
2018-05-04T23:49:11.626Z,99373.84
2018-05-04T23:51:40.789Z,99372.94
2018-05-04T23:54:09.753Z,99368.19
2018-05-04T23:56:38.157Z,99382.11
2018-05-04T23:59:06.551Z,99383.03
